createdAt,value
2019-01-21T00:00:27.967Z,79.80
2019-01-21T00:02:56.430Z,79.78
2019-01-21T00:05:24.959Z,79.92
2019-01-21T00:07:53.467Z,79.83
2019-01-21T00:10:21.921Z,79.70
2019-01-21T00:12:50.462Z,79.72
2019-01-21T00:15:18.969Z,79.44
2019-01-21T00:17:47.429Z,79.47
2019-01-21T00:20:15.959Z,79.52
2019-01-21T00:22:44.460Z,79.47
2019-01-21T00:25:12.919Z,79.61
2019-01-21T00:27:42.684Z,79.56
2019-01-21T00:30:12.513Z,79.71
2019-01-21T00:32:40.980Z,79.90
2019-01-21T00:35:10.278Z,79.96
2019-01-21T00:37:38.875Z,80.12
2019-01-21T00:40:10.592Z,80.13
2019-01-21T00:42:39.131Z,80.15
2019-01-21T00:45:07.884Z,80.13
2019-01-21T00:47:36.353Z,80.14
2019-01-21T00:50:08.041Z,80.17
2019-01-21T00:52:36.538Z,80.15
2019-01-21T00:55:07.835Z,80.32
2019-01-21T00:57:36.292Z,80.34
2019-01-21T01:00:07.966Z,80.38
2019-01-21T01:02:36.434Z,80.39
2019-01-21T01:05:06.720Z,80.43
2019-01-21T01:07:35.223Z,80.24
2019-01-21T01:10:05.160Z,79.97
2019-01-21T01:12:33.626Z,79.97
2019-01-21T01:15:02.137Z,80.15
2019-01-21T01:17:33.389Z,80.09
2019-01-21T01:20:00.782Z,79.93
2019-01-21T01:22:29.282Z,79.70
2019-01-21T01:24:57.739Z,79.79
2019-01-21T01:27:26.213Z,79.81
2019-01-21T01:29:56.160Z,79.93
2019-01-21T01:32:24.623Z,80.09
2019-01-21T01:34:53.088Z,79.82
2019-01-21T01:37:21.612Z,79.70
2019-01-21T01:39:50.071Z,79.47
2019-01-21T01:42:18.525Z,79.33
2019-01-21T01:44:47.117Z,79.28
2019-01-21T01:47:15.570Z,79.48
2019-01-21T01:49:44.108Z,79.43
2019-01-21T01:52:12.722Z,79.34
2019-01-21T01:54:42.209Z,79.21
2019-01-21T01:57:10.746Z,79.44
2019-01-21T01:59:39.323Z,79.37
2019-01-21T02:02:07.782Z,79.46
2019-01-21T02:04:36.326Z,79.69
2019-01-21T02:07:05.369Z,79.96
2019-01-21T02:09:33.876Z,80.14
2019-01-21T02:12:02.298Z,80.25
2019-01-21T02:14:30.785Z,79.97
2019-01-21T02:16:59.330Z,79.86
2019-01-21T02:19:29.746Z,79.87
2019-01-21T02:21:58.794Z,79.71
2019-01-21T02:24:29.691Z,79.76
2019-01-21T02:27:04.050Z,79.63
2019-01-21T02:29:35.789Z,79.60
2019-01-21T02:32:19.243Z,79.71
2019-01-21T02:34:56.557Z,79.65
2019-01-21T02:37:37.191Z,79.71
2019-01-21T02:40:25.290Z,79.70
2019-01-21T02:42:57.068Z,79.78
2019-01-21T02:45:52.927Z,79.59
2019-01-21T02:48:41.296Z,79.92
2019-01-21T02:51:31.135Z,80.12
2019-01-21T02:54:11.930Z,80.39
2019-01-21T02:56:49.182Z,80.42
2019-01-21T02:59:33.037Z,80.43
2019-01-21T03:02:23.043Z,80.47
2019-01-21T03:05:03.846Z,80.48
2019-01-21T03:07:55.115Z,80.50
2019-01-21T03:10:35.954Z,80.67
2019-01-21T03:13:10.671Z,80.57
2019-01-21T03:16:09.121Z,80.03
2019-01-21T03:18:52.416Z,80.04
2019-01-21T03:21:24.185Z,80.23
2019-01-21T03:24:15.319Z,80.48
2019-01-21T03:26:56.338Z,80.55
2019-01-21T03:29:53.712Z,80.69
2019-01-21T03:32:49.053Z,80.83
2019-01-21T03:35:26.280Z,81.09
2019-01-21T03:38:09.350Z,81.34
2019-01-21T03:40:43.914Z,81.52
2019-01-21T03:43:15.686Z,81.68
2019-01-21T03:46:02.269Z,81.65
2019-01-21T03:48:33.895Z,81.97
2019-01-21T03:51:17.424Z,81.86
2019-01-21T03:53:51.909Z,81.84
2019-01-21T03:56:23.988Z,81.56
2019-01-21T03:59:01.938Z,81.42
2019-01-21T04:01:39.696Z,81.48
2019-01-21T04:04:29.239Z,81.66
2019-01-21T04:07:01.335Z,81.72
2019-01-21T04:09:42.351Z,81.76
2019-01-21T04:12:15.022Z,81.96
2019-01-21T04:15:01.997Z,82.10
2019-01-21T04:18:07.135Z,81.94
2019-01-21T04:20:44.385Z,81.91
2019-01-21T04:23:24.872Z,82.15
2019-01-21T04:26:01.384Z,82.06
2019-01-21T04:28:33.123Z,81.93
2019-01-21T04:31:05.128Z,81.99
2019-01-21T04:33:43.608Z,82.17
2019-01-21T04:36:32.082Z,82.48
2019-01-21T04:39:18.861Z,82.37
2019-01-21T04:42:16.112Z,82.39
2019-01-21T04:45:30.531Z,82.49
2019-01-21T04:48:05.229Z,82.52
2019-01-21T04:51:02.230Z,82.37
2019-01-21T04:53:33.977Z,82.39
2019-01-21T04:56:22.244Z,82.31
2019-01-21T04:59:17.464Z,82.07
2019-01-21T05:01:49.231Z,82.04
2019-01-21T05:04:23.862Z,82.04
2019-01-21T05:07:10.583Z,82.13
2019-01-21T05:09:54.160Z,82.00
2019-01-21T05:12:44.039Z,81.98
2019-01-21T05:15:35.743Z,82.13
2019-01-21T05:18:25.504Z,82.27
2019-01-21T05:21:30.594Z,82.20
2019-01-21T05:24:11.409Z,82.39
2019-01-21T05:27:02.888Z,82.39
2019-01-21T05:29:43.472Z,82.43
2019-01-21T05:32:15.191Z,82.28
2019-01-21T05:34:50.010Z,82.50
2019-01-21T05:37:39.783Z,82.44
2019-01-21T05:40:20.791Z,82.58
2019-01-21T05:43:04.176Z,82.48
2019-01-21T05:45:48.082Z,82.44
2019-01-21T05:48:40.736Z,82.25
2019-01-21T05:51:24.558Z,82.03
2019-01-21T05:54:17.316Z,81.96
2019-01-21T05:56:57.732Z,82.12
2019-01-21T05:59:49.046Z,82.13
2019-01-21T06:02:23.715Z,82.08
2019-01-21T06:04:55.584Z,82.37
2019-01-21T06:07:36.065Z,82.61
2019-01-21T06:10:16.669Z,82.85
2019-01-21T06:12:51.157Z,82.97
2019-01-21T06:15:28.657Z,82.45
2019-01-21T06:18:11.740Z,82.70
2019-01-21T06:21:02.987Z,82.72
2019-01-21T06:23:46.825Z,82.53
2019-01-21T06:26:24.716Z,82.34
2019-01-21T06:29:05.682Z,82.73
2019-01-21T06:31:49.333Z,82.73
2019-01-21T06:34:33.271Z,82.61
2019-01-21T06:37:08.777Z,82.86
2019-01-21T06:39:42.982Z,83.14
2019-01-21T06:42:31.466Z,83.39
2019-01-21T06:45:03.223Z,83.68
2019-01-21T06:47:40.841Z,83.61
2019-01-21T06:50:29.423Z,84.60
2019-01-21T06:53:18.555Z,83.94
2019-01-21T06:55:52.775Z,83.56
2019-01-21T06:58:44.186Z,82.95
2019-01-21T07:01:21.714Z,82.86
2019-01-21T07:03:59.084Z,82.71
2019-01-21T07:06:48.569Z,82.50
2019-01-21T07:09:23.257Z,82.59
2019-01-21T07:12:03.592Z,82.92
2019-01-21T07:14:41.024Z,82.99
2019-01-21T07:17:28.523Z,82.92
2019-01-21T07:20:16.709Z,83.12
2019-01-21T07:23:03.429Z,83.12
2019-01-21T07:25:44.158Z,82.95
2019-01-21T07:28:21.436Z,83.06
2019-01-21T07:30:58.474Z,83.24
2019-01-21T07:33:32.821Z,83.31
2019-01-21T07:36:16.309Z,83.11
2019-01-21T07:39:04.025Z,82.79
2019-01-21T07:41:52.368Z,82.51
2019-01-21T07:44:38.936Z,82.56
2019-01-21T07:47:19.625Z,82.32
2019-01-21T07:49:51.383Z,82.28
2019-01-21T07:52:41.386Z,82.28
2019-01-21T07:55:18.866Z,82.16
2019-01-21T07:57:53.418Z,81.86
2019-01-21T08:00:33.810Z,81.69
2019-01-21T08:03:23.613Z,81.69
2019-01-21T08:05:58.155Z,81.79
2019-01-21T08:08:41.812Z,82.01
2019-01-21T08:11:31.889Z,82.01
2019-01-21T08:14:06.434Z,82.15
2019-01-21T08:16:47.021Z,82.25
2019-01-21T08:19:36.760Z,82.19
2019-01-21T08:22:14.498Z,82.11
2019-01-21T08:24:51.701Z,82.31
2019-01-21T08:27:45.907Z,82.10
2019-01-21T08:30:29.538Z,81.98
2019-01-21T08:33:16.076Z,81.70
2019-01-21T08:35:47.810Z,81.61
2019-01-21T08:38:25.363Z,81.39
2019-01-21T08:41:00.876Z,81.32
2019-01-21T08:43:50.823Z,81.35
2019-01-21T08:47:06.438Z,81.25
2019-01-21T08:50:00.703Z,81.21
2019-01-21T08:52:38.255Z,80.97
2019-01-21T08:55:32.007Z,80.57
2019-01-21T08:58:26.605Z,80.03
2019-01-21T09:01:22.427Z,79.52
2019-01-21T09:04:11.807Z,78.90
2019-01-21T09:07:00.762Z,78.99
2019-01-21T09:09:37.113Z,78.86
2019-01-21T09:12:33.134Z,78.95
2019-01-21T09:15:19.776Z,78.85
2019-01-21T09:17:57.699Z,78.86
2019-01-21T09:20:38.485Z,78.74
2019-01-21T09:23:26.995Z,78.57
2019-01-21T09:26:28.952Z,78.60
2019-01-21T09:29:16.993Z,78.30
2019-01-21T09:32:00.650Z,78.26
2019-01-21T09:34:35.102Z,78.42
2019-01-21T09:37:21.402Z,78.53
2019-01-21T09:39:56.699Z,78.12
2019-01-21T09:42:45.225Z,77.96
2019-01-21T09:45:33.529Z,77.83
2019-01-21T09:48:01.054Z,77.41
2019-01-21T09:50:29.783Z,77.19
2019-01-21T09:52:58.548Z,77.31
2019-01-21T09:55:27.104Z,77.13
2019-01-21T09:58:04.925Z,76.77
2019-01-21T10:00:33.489Z,76.93
2019-01-21T10:03:03.858Z,77.26
2019-01-21T10:05:33.772Z,77.23
2019-01-21T10:08:07.897Z,76.80
2019-01-21T10:10:42.598Z,76.45
2019-01-21T10:13:26.065Z,76.21
2019-01-21T10:16:09.765Z,76.08
2019-01-21T10:18:41.396Z,75.94
2019-01-21T10:21:25.283Z,75.68
2019-01-21T10:24:05.705Z,75.63
2019-01-21T10:26:40.347Z,75.30
2019-01-21T10:29:20.912Z,74.69
2019-01-21T10:31:59.475Z,74.40
2019-01-21T10:34:37.015Z,73.67
2019-01-21T10:37:23.731Z,73.84
2019-01-21T10:40:10.300Z,73.71
2019-01-21T10:42:47.783Z,73.13
2019-01-21T10:45:25.912Z,72.94
2019-01-21T10:48:23.456Z,72.91
2019-01-21T10:50:59.035Z,72.65
2019-01-21T10:53:30.709Z,72.76
2019-01-21T10:56:05.032Z,72.88
2019-01-21T10:58:42.439Z,72.76
2019-01-21T11:01:30.544Z,72.11
2019-01-21T11:04:02.227Z,71.94
2019-01-21T11:06:49.112Z,71.30
2019-01-21T11:09:33.260Z,70.85
2019-01-21T11:12:26.112Z,71.27
2019-01-21T11:15:12.596Z,71.17
2019-01-21T11:17:52.980Z,70.95
2019-01-21T11:20:48.923Z,71.19
2019-01-21T11:23:38.447Z,70.58
2019-01-21T11:26:22.037Z,70.54
2019-01-21T11:28:59.554Z,70.71
2019-01-21T11:31:43.238Z,70.68
2019-01-21T11:34:20.823Z,70.60
2019-01-21T11:37:14.656Z,70.32
2019-01-21T11:39:52.216Z,70.09
2019-01-21T11:42:29.297Z,69.51
2019-01-21T11:45:18.926Z,69.91
2019-01-21T11:47:53.806Z,69.47
2019-01-21T11:50:25.438Z,69.46
2019-01-21T11:52:57.082Z,69.57
2019-01-21T11:55:40.851Z,69.16
2019-01-21T11:58:29.814Z,69.10
2019-01-21T12:01:36.372Z,68.47
2019-01-21T12:04:16.588Z,68.38
2019-01-21T12:07:03.032Z,68.57
2019-01-21T12:09:46.806Z,68.50
2019-01-21T12:12:18.480Z,68.42
2019-01-21T12:15:05.037Z,68.50
2019-01-21T12:17:36.700Z,68.60
2019-01-21T12:20:35.743Z,68.49
2019-01-21T12:23:19.037Z,68.49
2019-01-21T12:25:59.723Z,68.43
2019-01-21T12:28:37.230Z,68.00
2019-01-21T12:31:28.443Z,67.74
2019-01-21T12:34:11.990Z,67.86
2019-01-21T12:36:46.203Z,67.90
2019-01-21T12:39:23.615Z,68.01
2019-01-21T12:41:58.177Z,67.76
2019-01-21T12:44:50.800Z,67.73
2019-01-21T12:47:28.135Z,67.62
2019-01-21T12:50:23.785Z,67.13
2019-01-21T12:52:59.415Z,66.71
2019-01-21T12:55:39.884Z,66.97
2019-01-21T12:58:11.522Z,66.92
2019-01-21T13:01:02.532Z,67.15
2019-01-21T13:03:53.739Z,67.25
2019-01-21T13:06:39.773Z,67.18
2019-01-21T13:09:11.424Z,66.78
2019-01-21T13:11:49.029Z,66.61
2019-01-21T13:14:26.524Z,66.35
2019-01-21T13:17:00.679Z,66.25
2019-01-21T13:19:49.744Z,66.10
2019-01-21T13:22:33.491Z,65.80
2019-01-21T13:25:24.591Z,65.75
2019-01-21T13:27:59.029Z,65.59
2019-01-21T13:30:54.385Z,65.57
2019-01-21T13:33:34.588Z,65.85
2019-01-21T13:36:11.967Z,66.02
2019-01-21T13:38:43.660Z,66.19
2019-01-21T13:41:21.293Z,66.19
2019-01-21T13:43:52.960Z,66.27
2019-01-21T13:46:44.444Z,66.26
2019-01-21T13:49:34.277Z,66.00
2019-01-21T13:52:24.275Z,66.20
2019-01-21T13:55:13.823Z,66.19
2019-01-21T13:58:14.187Z,66.27
2019-01-21T14:00:51.437Z,66.18
2019-01-21T14:03:23.082Z,66.52
2019-01-21T14:06:12.909Z,66.74
2019-01-21T14:08:47.258Z,66.89
2019-01-21T14:11:27.392Z,66.68
2019-01-21T14:13:59.021Z,66.77
2019-01-21T14:16:42.337Z,66.92
2019-01-21T14:19:28.837Z,67.11
2019-01-21T14:22:12.366Z,67.26
2019-01-21T14:24:43.994Z,67.12
2019-01-21T14:27:18.809Z,67.54
2019-01-21T14:30:02.178Z,67.63
2019-01-21T14:32:45.622Z,68.04
2019-01-21T14:35:32.050Z,68.12
2019-01-21T14:38:18.232Z,68.12
2019-01-21T14:40:52.710Z,68.04
2019-01-21T14:43:41.181Z,68.55
2019-01-21T14:46:24.784Z,70.13
2019-01-21T14:49:08.292Z,71.62
2019-01-21T14:51:48.892Z,72.22
2019-01-21T14:54:31.053Z,72.25
2019-01-21T14:57:23.990Z,72.17
2019-01-21T15:00:28.870Z,72.88
2019-01-21T15:03:00.506Z,74.00
2019-01-21T15:05:51.884Z,75.32
2019-01-21T15:08:23.590Z,75.80
2019-01-21T15:11:01.208Z,75.91
2019-01-21T15:13:54.101Z,76.43
2019-01-21T15:16:34.881Z,76.84
2019-01-21T15:19:09.522Z,76.57
2019-01-21T15:21:48.612Z,76.93
2019-01-21T15:24:39.636Z,76.78
2019-01-21T15:27:16.984Z,76.78
2019-01-21T15:30:03.771Z,76.95
2019-01-21T15:32:41.030Z,76.81
2019-01-21T15:35:21.518Z,76.80
2019-01-21T15:37:55.843Z,76.65
2019-01-21T15:40:33.297Z,76.79
2019-01-21T15:43:10.751Z,76.78
2019-01-21T15:45:54.468Z,76.64
2019-01-21T15:48:34.925Z,76.69
2019-01-21T15:51:24.676Z,76.50
2019-01-21T15:54:22.308Z,76.62
2019-01-21T15:57:16.443Z,76.62
2019-01-21T16:00:21.345Z,76.64
2019-01-21T16:03:17.073Z,76.84
2019-01-21T16:05:51.230Z,77.03
2019-01-21T16:08:22.637Z,76.76
2019-01-21T16:10:54.291Z,77.09
2019-01-21T16:13:25.979Z,77.29
2019-01-21T16:16:09.482Z,77.13
2019-01-21T16:18:56.165Z,77.20
2019-01-21T16:21:39.862Z,77.33
2019-01-21T16:24:29.848Z,77.49
2019-01-21T16:27:01.506Z,77.41
2019-01-21T16:29:33.142Z,77.61
2019-01-21T16:32:01.773Z,77.60
2019-01-21T16:34:40.299Z,77.53
2019-01-21T16:37:36.339Z,77.64
2019-01-21T16:40:14.006Z,77.59
2019-01-21T16:42:42.523Z,77.75
2019-01-21T16:45:11.027Z,77.68
2019-01-21T16:47:39.501Z,77.81
2019-01-21T16:50:08.740Z,77.52
2019-01-21T16:52:37.203Z,77.37
2019-01-21T16:55:07.693Z,77.37
2019-01-21T16:57:37.215Z,77.21
2019-01-21T17:00:11.588Z,77.32
2019-01-21T17:02:40.063Z,77.29
2019-01-21T17:05:11.198Z,77.28
2019-01-21T17:07:39.668Z,77.54
2019-01-21T17:10:11.085Z,77.37
2019-01-21T17:12:39.585Z,77.46
2019-01-21T17:15:10.960Z,77.43
2019-01-21T17:17:39.428Z,77.36
2019-01-21T17:20:14.022Z,77.23
2019-01-21T17:22:42.493Z,77.12
2019-01-21T17:25:11.214Z,77.44
2019-01-21T17:27:39.731Z,77.09
2019-01-21T17:30:11.371Z,77.03
2019-01-21T17:32:39.844Z,77.29
2019-01-21T17:35:10.492Z,77.31
2019-01-21T17:37:39.023Z,77.39
2019-01-21T17:40:10.893Z,77.50
2019-01-21T17:42:39.450Z,77.69
2019-01-21T17:45:13.902Z,77.79
2019-01-21T17:47:42.360Z,77.93
2019-01-21T17:50:13.204Z,78.07
2019-01-21T17:52:41.731Z,78.07
2019-01-21T17:55:10.884Z,78.33
2019-01-21T17:57:40.125Z,78.22
2019-01-21T18:00:16.197Z,78.03
2019-01-21T18:02:44.709Z,77.89
2019-01-21T18:05:13.164Z,78.32
2019-01-21T18:07:41.702Z,78.36
2019-01-21T18:10:13.139Z,78.52
2019-01-21T18:12:41.717Z,78.72
2019-01-21T18:15:12.020Z,78.61
2019-01-21T18:17:40.518Z,78.36
2019-01-21T18:20:12.100Z,78.50
2019-01-21T18:22:40.644Z,78.43
2019-01-21T18:25:10.484Z,78.45
2019-01-21T18:27:38.951Z,78.46
2019-01-21T18:30:10.578Z,78.41
2019-01-21T18:32:39.238Z,78.45
2019-01-21T18:35:09.934Z,78.59
2019-01-21T18:37:38.464Z,78.69
2019-01-21T18:40:15.302Z,78.78
2019-01-21T18:42:44.417Z,78.89
2019-01-21T18:45:15.812Z,78.98
2019-01-21T18:47:44.315Z,79.05
2019-01-21T18:50:12.847Z,79.08
2019-01-21T18:52:41.309Z,79.15
2019-01-21T18:55:10.376Z,79.10
2019-01-21T18:57:38.834Z,79.10
2019-01-21T19:00:18.059Z,78.94
2019-01-21T19:02:46.479Z,78.77
2019-01-21T19:05:15.009Z,78.71
2019-01-21T19:07:43.515Z,78.85
2019-01-21T19:10:14.114Z,78.63
2019-01-21T19:12:42.581Z,78.60
2019-01-21T19:15:16.821Z,78.59
2019-01-21T19:17:45.284Z,78.54
2019-01-21T19:20:16.089Z,78.68
2019-01-21T19:22:44.661Z,78.56
2019-01-21T19:25:13.298Z,78.64
2019-01-21T19:27:41.769Z,78.69
2019-01-21T19:30:13.469Z,78.73
2019-01-21T19:32:41.932Z,78.64
2019-01-21T19:35:13.418Z,78.73
2019-01-21T19:37:41.974Z,79.03
2019-01-21T19:40:13.606Z,78.95
2019-01-21T19:42:42.083Z,78.97
2019-01-21T19:45:11.930Z,78.94
2019-01-21T19:47:40.555Z,79.09
2019-01-21T19:50:12.160Z,79.22
2019-01-21T19:52:40.769Z,79.38
2019-01-21T19:55:15.237Z,79.69
2019-01-21T19:57:43.720Z,79.76
2019-01-21T20:00:15.642Z,79.92
2019-01-21T20:02:44.572Z,80.01
2019-01-21T20:05:13.307Z,80.01
2019-01-21T20:07:41.864Z,80.19
2019-01-21T20:10:13.756Z,80.22
2019-01-21T20:12:42.214Z,80.27
2019-01-21T20:15:14.074Z,80.50
2019-01-21T20:17:43.326Z,80.67
2019-01-21T20:20:15.175Z,80.81
2019-01-21T20:22:43.784Z,81.00
2019-01-21T20:25:12.712Z,81.13
2019-01-21T20:27:41.177Z,81.17
2019-01-21T20:30:13.098Z,81.29
2019-01-21T20:32:42.439Z,81.43
2019-01-21T20:35:11.046Z,81.62
2019-01-21T20:37:39.548Z,81.70
2019-01-21T20:40:20.024Z,81.78
2019-01-21T20:42:48.526Z,81.82
2019-01-21T20:45:17.224Z,81.81
2019-01-21T20:47:46.028Z,81.77
2019-01-21T20:50:17.283Z,81.66
2019-01-21T20:52:45.740Z,81.65
2019-01-21T20:55:14.647Z,81.67
2019-01-21T20:57:43.142Z,81.69
2019-01-21T21:00:17.673Z,81.71
2019-01-21T21:02:46.412Z,81.66
2019-01-21T21:05:15.402Z,81.73
2019-01-21T21:07:43.860Z,81.66
2019-01-21T21:10:12.744Z,81.81
2019-01-21T21:12:41.338Z,81.78
2019-01-21T21:15:24.645Z,81.73
2019-01-21T21:17:53.136Z,81.59
2019-01-21T21:20:21.599Z,81.42
2019-01-21T21:22:50.056Z,81.41
2019-01-21T21:25:20.153Z,81.35
2019-01-21T21:27:48.626Z,81.43
2019-01-21T21:30:19.896Z,81.41
2019-01-21T21:32:48.401Z,81.39
2019-01-21T21:35:16.844Z,81.34
2019-01-21T21:37:45.320Z,81.36
2019-01-21T21:40:16.626Z,81.25
2019-01-21T21:42:45.244Z,81.36
2019-01-21T21:45:16.039Z,81.40
2019-01-21T21:47:44.545Z,81.35
2019-01-21T21:50:25.083Z,81.24
2019-01-21T21:52:53.569Z,81.05
2019-01-21T21:55:22.035Z,80.97
2019-01-21T21:57:50.657Z,81.00
2019-01-21T22:00:21.677Z,81.05
2019-01-21T22:02:50.696Z,81.08
2019-01-21T22:05:19.629Z,81.11
2019-01-21T22:07:49.070Z,81.14
2019-01-21T22:10:21.476Z,81.13
2019-01-21T22:12:50.144Z,81.19
2019-01-21T22:15:20.691Z,81.09
2019-01-21T22:17:49.162Z,81.06
2019-01-21T22:20:20.236Z,81.05
2019-01-21T22:22:48.803Z,81.11
2019-01-21T22:25:17.661Z,80.94
2019-01-21T22:27:46.124Z,80.93
2019-01-21T22:30:17.341Z,80.85
2019-01-21T22:32:45.814Z,80.85
2019-01-21T22:35:14.345Z,80.98
2019-01-21T22:37:42.932Z,81.05
2019-01-21T22:40:14.507Z,80.95
2019-01-21T22:42:43.037Z,81.00
2019-01-21T22:45:12.767Z,80.95
2019-01-21T22:47:41.373Z,80.94
2019-01-21T22:50:11.975Z,81.00
2019-01-21T22:52:42.049Z,81.00
2019-01-21T22:55:12.674Z,81.09
2019-01-21T22:57:41.137Z,81.01
2019-01-21T23:00:15.713Z,81.06
2019-01-21T23:02:44.464Z,80.92
2019-01-21T23:05:14.072Z,80.90
2019-01-21T23:07:42.566Z,80.80
2019-01-21T23:10:11.037Z,80.86
2019-01-21T23:12:39.499Z,80.94
2019-01-21T23:15:08.960Z,81.11
2019-01-21T23:17:37.426Z,80.99
2019-01-21T23:20:09.129Z,80.83
2019-01-21T23:22:37.642Z,80.80
2019-01-21T23:25:06.839Z,80.83
2019-01-21T23:27:35.297Z,80.89
2019-01-21T23:30:05.442Z,80.96
2019-01-21T23:32:33.913Z,80.96
2019-01-21T23:35:02.373Z,81.00
2019-01-21T23:37:30.859Z,81.14
2019-01-21T23:39:59.309Z,81.20
2019-01-21T23:42:28.057Z,81.22
2019-01-21T23:44:56.550Z,81.31
2019-01-21T23:47:25.187Z,81.37
2019-01-21T23:49:53.651Z,81.44
2019-01-21T23:52:22.167Z,81.41
2019-01-21T23:54:50.635Z,81.51
2019-01-21T23:57:19.102Z,81.51
2019-01-21T23:59:47.592Z,81.69
